Time;durP1;ratioP1;P1;durP2;ratioP2;P2;SDS_P1;SDS_P2;PMS_P1;PMS_P2;Temp;Humidity;BMP_temperature;BMP_pressure;BME280_temperature;BME280_humidity;BME280_pressure;Samples;Min_cycle;Max_cycle;Signal;HPM_P1;HPM_P2
2021/01/05 00:01:54;;;;;;;33.20;23.57;;;;;;;3.33;100.00;100333.57;2082778;85;27019;-72
2021/01/05 00:04:54;;;;;;;31.12;21.50;;;;;;;3.28;100.00;100322.64;2082801;85;25804;-73
2021/01/05 00:07:56;;;;;;;32.20;22.57;;;;;;;3.28;100.00;100321.33;2082658;85;31047;-72
2021/01/05 00:10:57;;;;;;;30.57;21.53;;;;;;;3.33;100.00;100325.66;2082932;85;33520;-73
2021/01/05 00:13:58;;;;;;;30.52;22.17;;;;;;;3.35;100.00;100322.58;2082889;85;25814;-72
2021/01/05 00:16:59;;;;;;;32.60;21.83;;;;;;;3.34;100.00;100322.14;2083184;85;32698;-72
2021/01/05 00:20:01;;;;;;;27.73;20.12;;;;;;;3.32;100.00;100321.28;2082806;85;25767;-72
2021/01/05 00:23:02;;;;;;;30.50;20.40;;;;;;;3.31;100.00;100322.16;2082775;85;26043;-72
2021/01/05 00:26:03;;;;;;;26.73;19.85;;;;;;;3.35;100.00;100319.05;2082902;85;25887;-72
2021/01/05 00:29:05;;;;;;;28.50;20.45;;;;;;;3.39;100.00;100325.16;2082702;85;25636;-68
2021/01/05 00:32:21;;;;;;;32.17;21.52;;;;;;;3.43;100.00;100326.89;2082925;85;27524;-72
2021/01/05 00:35:35;;;;;;;31.33;20.85;;;;;;;3.43;100.00;100315.03;2083212;85;25848;-72
2021/01/05 00:38:36;;;;;;;26.95;19.92;;;;;;;3.39;100.00;100317.25;2082843;85;25816;-72
2021/01/05 00:41:37;;;;;;;26.33;18.87;;;;;;;3.37;100.00;100315.11;2082923;85;33304;-72
2021/01/05 00:44:38;;;;;;;25.33;18.43;;;;;;;3.43;100.00;100315.89;2082636;85;26005;-68
2021/01/05 00:47:39;;;;;;;26.50;19.35;;;;;;;3.44;100.00;100319.41;2082910;85;28274;-72
2021/01/05 00:50:40;;;;;;;28.60;20.17;;;;;;;3.48;100.00;100318.47;2083084;85;35314;-72
2021/01/05 00:53:41;;;;;;;31.20;20.23;;;;;;;3.45;100.00;100308.84;2082599;85;25998;-72
2021/01/05 00:57:01;;;;;;;29.50;19.73;;;;;;;3.41;100.00;100310.21;2082823;85;26495;-68
2021/01/05 01:00:07;;;;;;;28.32;18.85;;;;;;;3.41;100.00;100307.58;2082735;85;26174;-72
2021/01/05 01:03:08;;;;;;;24.37;18.17;;;;;;;3.38;100.00;100304.54;2082801;85;28120;-71
2021/01/05 01:06:10;;;;;;;26.23;18.75;;;;;;;3.42;100.00;100310.64;2083004;85;25748;-72
2021/01/05 01:09:11;;;;;;;28.52;20.32;;;;;;;3.46;100.00;100313.23;2082961;85;26514;-72
2021/01/05 01:12:19;;;;;;;30.17;20.25;;;;;;;3.47;100.00;100302.23;2082885;85;25832;-72
2021/01/05 01:15:20;;;;;;;29.65;19.95;;;;;;;3.44;100.00;100297.02;2082694;85;26451;-72
2021/01/05 01:18:21;;;;;;;28.42;20.20;;;;;;;3.40;100.00;100292.23;2082916;85;28276;-71
2021/01/05 01:21:23;;;;;;;25.65;18.75;;;;;;;3.43;100.00;100280.77;2082826;85;26370;-69
2021/01/05 01:24:25;;;;;;;26.00;18.70;;;;;;;3.48;100.00;100275.88;2082801;85;25878;-72
2021/01/05 01:27:27;;;;;;;26.07;18.15;;;;;;;3.50;100.00;100272.75;2082671;85;26379;-68
2021/01/05 01:30:28;;;;;;;32.08;21.90;;;;;;;3.47;100.00;100262.27;2082535;85;25905;-72
2021/01/05 01:33:29;;;;;;;28.90;19.93;;;;;;;3.46;100.00;100267.53;2082734;85;32701;-72
2021/01/05 01:36:30;;;;;;;27.87;19.30;;;;;;;3.40;100.00;100268.51;2082931;85;35407;-72
2021/01/05 01:39:33;;;;;;;28.87;19.93;;;;;;;3.44;100.00;100267.56;2082597;85;31737;-71
2021/01/05 01:42:35;;;;;;;30.80;19.95;;;;;;;3.48;100.00;100278.94;2055055;85;25754;-71
2021/01/05 01:45:36;;;;;;;29.48;21.17;;;;;;;3.49;100.00;100271.47;2046832;86;25913;-72
2021/01/05 01:48:37;;;;;;;31.70;20.60;;;;;;;3.45;100.00;100269.77;2046689;86;27453;-72
2021/01/05 01:51:41;;;;;;;27.48;19.45;;;;;;;3.41;100.00;100266.30;2046809;86;26594;-72
2021/01/05 01:55:20;;;;;;;25.37;18.40;;;;;;;3.42;100.00;100263.21;2046794;86;25765;-72
2021/01/05 01:58:50;;;;;;;25.05;18.40;;;;;;;3.44;100.00;100256.16;2046852;86;26360;-72
2021/01/05 02:02:10;;;;;;;27.25;20.15;;;;;;;3.49;100.00;100255.66;2046999;86;26311;-72
2021/01/05 02:05:18;;;;;;;28.15;18.23;;;;;;;3.49;100.00;100262.23;2046638;86;27272;-72
2021/01/05 02:08:42;;;;;;;26.95;19.25;;;;;;;3.45;100.00;100258.77;2046917;86;26033;-72
2021/01/05 02:12:13;;;;;;;25.32;17.92;;;;;;;3.43;100.00;100263.64;2046711;86;25853;-72
2021/01/05 02:15:34;;;;;;;23.98;18.07;;;;;;;3.47;100.00;100253.47;2046984;86;25735;-72
2021/01/05 02:18:53;;;;;;;24.57;18.65;;;;;;;3.52;100.00;100254.31;2046829;86;25772;-73
2021/01/05 02:22:23;;;;;;;26.80;18.32;;;;;;;3.53;100.00;100242.84;2046718;86;28279;-72
2021/01/05 02:25:51;;;;;;;27.80;18.48;;;;;;;3.50;100.00;100248.17;2047075;86;25519;-71
2021/01/05 02:29:01;;;;;;;22.93;16.40;;;;;;;3.49;100.00;100239.84;2046439;86;25857;-73
2021/01/05 02:32:36;;;;;;;23.18;16.90;;;;;;;3.50;100.00;100233.68;2046704;86;26082;-72
2021/01/05 02:35:54;;;;;;;24.12;17.15;;;;;;;3.56;100.00;100224.83;2046612;86;25919;-72
2021/01/05 02:39:23;;;;;;;25.72;17.00;;;;;;;3.56;100.00;100219.09;2046293;86;28313;-69
2021/01/05 02:42:39;;;;;;;25.40;17.02;;;;;;;3.53;100.00;100219.13;2046778;85;26059;-72
2021/01/05 02:46:00;;;;;;;22.95;15.68;;;;;;;3.54;100.00;100212.96;2046932;86;25867;-73
2021/01/05 02:49:24;;;;;;;21.75;15.60;;;;;;;3.60;100.00;100212.88;2046707;86;26325;-72
2021/01/05 02:53:09;;;;;;;26.48;16.97;;;;;;;3.62;100.00;100203.65;2046810;86;25770;-73
2021/01/05 02:56:42;;;;;;;27.87;17.50;;;;;;;3.63;100.00;100199.66;2047117;86;27462;-71
2021/01/05 03:00:00;;;;;;;24.77;17.07;;;;;;;3.59;100.00;100199.30;2011484;88;26499;-73
2021/01/05 03:03:30;;;;;;;23.45;16.60;;;;;;;3.57;100.00;100191.84;2046449;86;25894;-70
2021/01/05 03:06:38;;;;;;;27.62;17.40;;;;;;;3.58;100.00;100193.59;2046873;86;25744;-68
2021/01/05 03:10:20;;;;;;;29.20;19.62;;;;;;;3.61;100.00;100192.22;2047054;86;25865;-72
2021/01/05 03:13:50;;;;;;;28.95;19.15;;;;;;;3.61;100.00;100185.63;2046663;86;26105;-68
2021/01/05 03:17:00;;;;;;;24.80;17.42;;;;;;;3.55;100.00;100180.45;2046828;86;25877;-72
2021/01/05 03:20:12;;;;;;;28.60;18.62;;;;;;;3.56;100.00;100172.97;2046775;86;26240;-67
2021/01/05 03:23:15;;;;;;;27.13;18.32;;;;;;;3.61;100.00;100172.91;2047072;86;25863;-73
2021/01/05 03:26:20;;;;;;;28.02;18.98;;;;;;;3.66;100.00;100160.52;2046929;86;25795;-74
2021/01/05 03:29:22;;;;;;;31.10;20.27;;;;;;;3.67;100.00;100157.84;2031888;87;27656;-72
2021/01/05 03:32:23;;;;;;;29.77;19.17;;;;;;;3.63;100.00;100160.13;2047204;86;26078;-68
2021/01/05 03:35:24;;;;;;;29.72;19.30;;;;;;;3.61;100.00;100154.45;2048037;86;26624;-72
2021/01/05 03:38:24;;;;;;;30.57;20.97;;;;;;;3.61;100.00;100146.55;2048839;86;33245;-71
2021/01/05 03:41:26;;;;;;;34.07;22.50;;;;;;;3.62;100.00;100143.02;2052008;85;26000;-72
2021/01/05 03:44:27;;;;;;;32.83;23.12;;;;;;;3.62;100.00;100134.65;2082233;85;28280;-71
2021/01/05 03:47:28;;;;;;;32.13;22.73;;;;;;;3.64;100.00;100134.19;2082437;85;35449;-72
2021/01/05 03:50:29;;;;;;;29.50;19.87;;;;;;;3.61;100.00;100135.54;2082063;85;26328;-72
2021/01/05 03:53:30;;;;;;;25.88;18.15;;;;;;;3.60;100.00;100134.25;2082355;85;25788;-68
2021/01/05 03:56:31;;;;;;;26.57;19.17;;;;;;;3.61;100.00;100131.59;2082377;85;25847;-71
2021/01/05 03:59:32;;;;;;;25.03;19.90;;;;;;;3.66;100.00;100129.73;2082348;85;33122;-72
2021/01/05 04:02:33;;;;;;;27.77;20.87;;;;;;;3.68;100.00;100124.47;2082162;85;35431;-71
2021/01/05 04:05:34;;;;;;;28.55;20.48;;;;;;;3.68;100.00;100128.42;2082429;85;25778;-71
2021/01/05 04:08:36;;;;;;;25.17;19.37;;;;;;;3.64;100.00;100126.71;2082299;85;33338;-72
2021/01/05 04:11:37;;;;;;;26.15;17.67;;;;;;;3.64;100.00;100126.28;2082114;85;25867;-71
2021/01/05 04:14:38;;;;;;;24.50;18.97;;;;;;;3.63;100.00;100129.81;2082168;85;33039;-72
2021/01/05 04:17:39;;;;;;;24.47;18.60;;;;;;;3.71;100.00;100130.13;2082220;85;35354;-72
2021/01/05 04:20:40;;;;;;;24.37;17.93;;;;;;;3.73;100.00;100127.89;2082186;85;31568;-72
2021/01/05 04:23:41;;;;;;;21.87;16.62;;;;;;;3.71;100.00;100127.50;2082047;85;25915;-72
2021/01/05 04:26:42;;;;;;;20.30;16.00;;;;;;;3.67;100.00;100126.67;2082238;85;25850;-72
2021/01/05 04:29:43;;;;;;;15.67;13.03;;;;;;;3.67;100.00;100122.27;2082005;85;33144;-72
2021/01/05 04:32:44;;;;;;;16.83;13.23;;;;;;;3.70;100.00;100117.84;2082381;85;35027;-72
2021/01/05 04:35:45;;;;;;;18.83;14.03;;;;;;;3.74;100.00;100116.88;2082414;85;31093;-72
2021/01/05 04:38:46;;;;;;;19.50;13.57;;;;;;;3.77;100.00;100125.61;2083146;85;33226;-73
2021/01/05 04:42:05;;;;;;;16.20;12.53;;;;;;;3.74;100.00;100120.84;2082793;85;26245;-72
2021/01/05 04:45:11;;;;;;;15.45;11.12;;;;;;;3.70;100.00;100115.20;2082020;85;28370;-72
2021/01/05 04:48:23;;;;;;;10.72;9.10;;;;;;;3.71;100.00;100122.22;2086889;84;25786;-73
2021/01/05 04:51:41;;;;;;;9.80;8.80;;;;;;;3.73;100.00;100119.13;2069992;85;27970;-72
2021/01/05 04:55:00;;;;;;;12.25;10.08;;;;;;;3.73;100.00;100115.17;2081104;85;25796;-72
2021/01/05 04:58:09;;;;;;;14.50;10.10;;;;;;;3.72;100.00;100114.74;2080587;85;25840;-68
2021/01/05 05:01:21;;;;;;;12.20;8.05;;;;;;;3.69;100.00;100114.35;2081182;85;27480;-72
2021/01/05 05:04:36;;;;;;;9.25;7.30;;;;;;;3.69;100.00;100109.50;2076911;85;25959;-72
2021/01/05 05:08:11;;;;;;;8.35;6.65;;;;;;;3.72;100.00;100110.79;2081782;85;26099;-72
2021/01/05 05:11:17;;;;;;;9.03;7.60;;;;;;;3.76;100.00;100100.60;2082207;85;25732;-72
2021/01/05 05:14:38;;;;;;;8.05;6.80;;;;;;;3.77;100.00;100107.16;2082215;85;25809;-71
2021/01/05 05:18:11;;;;;;;10.58;7.20;;;;;;;3.74;100.00;100103.70;2076308;84;27813;-72
2021/01/05 05:21:27;;;;;;;8.68;7.05;;;;;;;3.70;100.00;100102.03;2082184;85;25911;-72
2021/01/05 05:25:02;;;;;;;7.10;6.37;;;;;;;3.74;100.00;100101.95;2082048;85;26034;-72
2021/01/05 05:28:09;;;;;;;8.10;6.67;;;;;;;3.79;100.00;100093.97;2082335;85;25885;-69
2021/01/05 05:31:13;;;;;;;8.65;7.03;;;;;;;3.80;100.00;100089.13;2081713;85;26242;-73
2021/01/05 05:34:28;;;;;;;13.03;10.88;;;;;;;3.77;100.00;100093.12;2087216;85;27536;-72
2021/01/05 05:38:05;;;;;;;6.87;5.72;;;;;;;3.72;100.00;100089.70;2082299;85;25818;-73
2021/01/05 05:41:20;;;;;;;7.03;6.20;;;;;;;3.72;100.00;100083.96;2082250;85;26612;-71
2021/01/05 05:44:35;;;;;;;10.10;7.45;;;;;;;3.75;100.00;100081.72;2081893;85;25824;-69
2021/01/05 05:47:57;;;;;;;9.35;7.72;;;;;;;3.77;100.00;100079.47;2082542;85;26428;-72
2021/01/05 05:51:19;;;;;;;7.25;6.55;;;;;;;3.74;100.00;100079.97;2082758;85;28300;-72
2021/01/05 05:54:23;;;;;;;9.08;6.40;;;;;;;3.72;100.00;100073.42;2082492;85;25804;-72
2021/01/05 05:57:39;;;;;;;8.25;6.47;;;;;;;3.76;100.00;100068.53;2082692;85;26450;-74
2021/01/05 06:00:44;;;;;;;8.95;7.20;;;;;;;3.82;100.00;100063.58;2081208;85;25805;-73
2021/01/05 06:03:45;;;;;;;9.33;7.87;;;;;;;3.81;100.00;100065.79;2082951;85;25819;-71
2021/01/05 06:06:47;;;;;;;7.45;5.95;;;;;;;3.76;100.00;100059.73;2082753;85;28329;-72
2021/01/05 06:09:47;;;;;;;7.80;6.47;;;;;;;3.75;100.00;100060.63;2089961;84;25791;-69
2021/01/05 06:12:48;;;;;;;6.70;5.80;;;;;;;3.78;100.00;100055.31;2082639;85;31031;-73
2021/01/05 06:15:49;;;;;;;6.80;5.90;;;;;;;3.82;100.00;100051.71;2082897;85;25846;-72
2021/01/05 06:18:50;;;;;;;7.83;6.83;;;;;;;3.82;100.00;100052.60;2082629;85;25930;-68
2021/01/05 06:21:51;;;;;;;8.87;7.97;;;;;;;3.80;100.00;100046.94;2082921;85;32940;-72
2021/01/05 06:24:53;;;;;;;10.43;6.65;;;;;;;3.74;100.00;100048.33;2082831;85;25771;-72
2021/01/05 06:27:55;;;;;;;8.98;6.87;;;;;;;3.78;100.00;100048.72;2082788;85;25848;-72
2021/01/05 06:30:56;;;;;;;7.90;6.97;;;;;;;3.81;100.00;100044.69;2082570;85;25843;-71
2021/01/05 06:33:57;;;;;;;7.83;6.93;;;;;;;3.83;100.00;100036.31;2082787;85;26389;-71
2021/01/05 06:36:58;;;;;;;7.70;6.60;;;;;;;3.80;100.00;100033.30;2082739;85;27314;-72
2021/01/05 06:39:58;;;;;;;6.57;5.87;;;;;;;3.76;100.00;100036.89;2082748;85;34829;-72
2021/01/05 06:43:00;;;;;;;5.37;4.77;;;;;;;3.77;100.00;100036.44;2082702;85;31058;-71
2021/01/05 06:46:01;;;;;;;6.30;5.45;;;;;;;3.80;100.00;100036.39;2082790;85;25844;-72
2021/01/05 06:49:02;;;;;;;6.95;6.12;;;;;;;3.84;100.00;100035.42;2083068;85;26172;-72
2021/01/05 06:52:05;;;;;;;7.40;5.20;;;;;;;3.82;100.00;100036.78;2082597;85;32744;-69
2021/01/05 06:55:08;;;;;;;7.03;4.92;;;;;;;3.77;100.00;100030.70;2082744;85;26059;-72
2021/01/05 06:58:09;;;;;;;5.45;4.40;;;;;;;3.75;100.00;100028.56;2083658;85;25886;-71
2021/01/05 07:01:10;;;;;;;5.90;4.50;;;;;;;3.77;100.00;100023.25;2083047;85;33328;-68
2021/01/05 07:04:11;;;;;;;7.13;5.70;;;;;;;3.83;100.00;100025.77;2083415;85;25934;-73
2021/01/05 07:07:12;;;;;;;6.80;4.60;;;;;;;3.87;100.00;100019.99;2082764;85;32848;-71
2021/01/05 07:10:16;;;;;;;5.87;4.78;;;;;;;3.84;100.00;100009.05;2082846;85;25853;-72
2021/01/05 07:13:17;;;;;;;4.03;3.58;;;;;;;3.75;100.00;100014.06;2082880;85;25838;-72
2021/01/05 07:16:18;;;;;;;3.67;3.37;;;;;;;3.75;100.00;100019.77;2083085;85;33182;-72
2021/01/05 07:19:19;;;;;;;3.40;3.00;;;;;;;3.77;100.00;100017.52;2082733;85;26464;-72
2021/01/05 07:22:21;;;;;;;3.70;3.27;;;;;;;3.79;100.00;100006.96;2082723;85;27482;-73
2021/01/05 07:25:22;;;;;;;4.15;3.22;;;;;;;3.80;100.00;100006.07;2082822;85;25997;-72
2021/01/05 07:28:22;;;;;;;3.90;3.07;;;;;;;3.75;100.00;100006.58;2082824;85;31377;-72
2021/01/05 07:31:23;;;;;;;3.80;3.10;;;;;;;3.74;100.00;100007.04;2083005;85;33235;-68
2021/01/05 07:34:24;;;;;;;3.63;3.00;;;;;;;3.74;100.00;100008.79;2082696;85;25939;-73
2021/01/05 07:37:29;;;;;;;4.30;3.20;;;;;;;3.77;100.00;100010.06;2082569;85;32648;-72
2021/01/05 07:40:30;;;;;;;5.60;3.60;;;;;;;3.81;100.00;100007.78;2082915;85;25747;-72
2021/01/05 07:43:31;;;;;;;3.00;2.50;;;;;;;3.80;100.00;100003.44;2082719;85;25879;-72
2021/01/05 07:46:32;;;;;;;3.47;3.00;;;;;;;3.76;100.00;99997.34;2082645;85;33275;-68
2021/01/05 07:49:35;;;;;;;3.35;2.80;;;;;;;3.67;100.00;99999.67;2082826;85;25776;-72
2021/01/05 07:52:41;;;;;;;3.52;2.87;;;;;;;3.71;100.00;99995.68;2082737;85;27576;-72
2021/01/05 07:55:42;;;;;;;5.20;2.97;;;;;;;3.73;100.00;99994.75;2082888;85;25824;-72
2021/01/05 07:58:43;;;;;;;3.57;3.07;;;;;;;3.75;100.00;99990.33;2082685;85;31491;-72
2021/01/05 08:01:46;;;;;;;3.27;2.98;;;;;;;3.72;100.00;99996.11;2082774;85;25897;-72
2021/01/05 08:04:47;;;;;;;2.42;2.22;;;;;;;3.65;100.00;99985.67;2082765;85;25937;-72
2021/01/05 08:07:49;;;;;;;3.08;2.05;;;;;;;3.61;100.00;99991.02;2082580;85;27508;-71
2021/01/05 08:10:51;;;;;;;2.17;1.98;;;;;;;3.58;100.00;99993.27;2082863;85;25851;-73
2021/01/05 08:13:52;;;;;;;3.02;1.92;;;;;;;3.66;100.00;99980.80;2082880;85;25880;-73
2021/01/05 08:16:53;;;;;;;2.33;2.08;;;;;;;3.67;100.00;99976.41;2084973;85;25874;-68
2021/01/05 08:19:54;;;;;;;3.20;1.50;;;;;;;3.64;100.00;99968.55;2086743;85;26038;-72
2021/01/05 08:22:56;;;;;;;2.57;1.70;;;;;;;3.60;100.00;99976.11;2082968;85;33112;-69
2021/01/05 08:25:57;;;;;;;2.50;2.30;;;;;;;3.59;100.00;99967.34;2090039;84;25831;-73
2021/01/05 08:28:58;;;;;;;2.33;2.13;;;;;;;3.62;100.00;99959.36;2100031;83;30974;-72
2021/01/05 08:31:59;;;;;;;3.00;2.37;;;;;;;3.67;100.00;99968.05;2100322;83;33136;-71
2021/01/05 08:35:00;;;;;;;2.40;2.10;;;;;;;3.67;100.00;99965.87;2100223;83;25980;-72
2021/01/05 08:38:03;;;;;;;1.67;1.57;;;;;;;3.55;100.00;99960.37;2099483;83;27538;-73
2021/01/05 08:41:04;;;;;;;2.33;1.92;;;;;;;3.50;100.00;99951.22;2098842;83;26700;-71
2021/01/05 08:44:07;;;;;;;1.85;1.62;;;;;;;3.53;100.00;99950.29;2034226;84;26483;-72
2021/01/05 08:47:08;;;;;;;3.33;3.02;;;;;;;3.54;100.00;99949.40;2045642;86;25919;-69
2021/01/05 08:50:17;;;;;;;2.43;2.23;;;;;;;3.49;100.00;99945.98;2046519;86;26409;-72
2021/01/05 08:53:18;;;;;;;2.65;1.85;;;;;;;3.45;100.00;99948.27;2045426;86;28423;-71
2021/01/05 08:56:26;;;;;;;1.63;1.50;;;;;;;3.37;100.00;99947.07;2023940;87;35434;-72
2021/01/05 08:59:27;;;;;;;1.62;1.20;;;;;;;3.30;100.00;99947.64;2037949;86;27049;-70
2021/01/05 09:02:28;;;;;;;1.55;1.22;;;;;;;3.36;100.00;99941.38;2046385;86;26271;-72
2021/01/05 09:05:29;;;;;;;2.70;1.77;;;;;;;3.34;100.00;99932.19;2047376;86;26447;-69
2021/01/05 09:08:30;;;;;;;1.57;1.47;;;;;;;3.34;100.00;99938.78;2046177;86;32791;-71
2021/01/05 09:11:32;;;;;;;1.95;1.70;;;;;;;3.29;100.00;99930.09;2044934;86;25783;-71
2021/01/05 09:14:33;;;;;;;1.12;0.90;;;;;;;3.24;100.00;99930.63;2020949;86;26242;-67
2021/01/05 09:17:34;;;;;;;2.93;2.20;;;;;;;3.21;100.00;99937.25;2021185;86;33364;-67
2021/01/05 09:20:35;;;;;;;2.22;2.02;;;;;;;3.25;100.00;99938.07;2023861;86;25757;-71
2021/01/05 09:23:36;;;;;;;2.10;1.40;;;;;;;3.23;100.00;99934.16;2036471;87;31786;-71
2021/01/05 09:26:37;;;;;;;1.45;1.22;;;;;;;3.13;100.00;99928.61;2029738;86;26007;-73
2021/01/05 09:29:38;;;;;;;2.90;1.50;;;;;;;3.17;100.00;99927.67;2043482;87;31097;-71
2021/01/05 09:32:39;;;;;;;1.67;1.57;;;;;;;3.19;100.00;99929.81;2023997;87;33218;-73
2021/01/05 09:35:40;;;;;;;2.30;1.92;;;;;;;3.16;100.00;99924.16;2014376;87;25836;-72
2021/01/05 09:38:44;;;;;;;2.12;1.92;;;;;;;3.15;100.00;99917.61;2018521;87;28362;-72
2021/01/05 09:42:00;;;;;;;2.00;1.90;;;;;;;3.03;100.00;99912.95;2015954;87;25805;-72
2021/01/05 09:45:01;;;;;;;2.62;2.25;;;;;;;2.89;100.00;99907.04;2000332;87;25974;-73
2021/01/05 09:48:15;;;;;;;2.50;2.00;;;;;;;2.86;100.00;99905.79;2014846;87;25866;-73
2021/01/05 09:51:28;;;;;;;2.52;2.02;;;;;;;2.93;100.00;99911.38;2000601;88;26413;-67
2021/01/05 09:54:31;;;;;;;3.35;2.65;;;;;;;2.96;100.00;99905.19;2001500;88;27726;-72
2021/01/05 09:57:32;;;;;;;3.33;2.40;;;;;;;2.98;100.00;99901.63;1988977;89;26662;-72
2021/01/05 10:00:33;;;;;;;4.80;3.63;;;;;;;2.94;100.00;99898.64;1990024;88;31173;-69
2021/01/05 10:03:34;;;;;;;3.05;2.25;;;;;;;2.89;100.00;99893.02;2011757;88;25905;-72
2021/01/05 10:06:35;;;;;;;3.23;2.17;;;;;;;2.90;100.00;99894.30;2000172;87;25929;-68
2021/01/05 10:09:36;;;;;;;1.70;1.60;;;;;;;2.91;100.00;99883.34;2010651;87;27012;-72
2021/01/05 10:12:38;;;;;;;1.65;1.55;;;;;;;2.85;100.00;99880.36;2004108;88;25754;-71
2021/01/05 10:15:39;;;;;;;1.77;1.32;;;;;;;2.85;100.00;99870.68;2003822;88;27983;-72
2021/01/05 10:18:40;;;;;;;1.95;1.50;;;;;;;2.81;100.00;99863.74;2007347;87;25899;-72
2021/01/05 10:21:43;;;;;;;1.17;1.07;;;;;;;2.70;100.00;99859.97;2010133;87;25971;-68
2021/01/05 10:24:45;;;;;;;2.92;1.67;;;;;;;2.65;100.00;99859.61;1995940;87;27909;-60
2021/01/05 10:27:47;;;;;;;4.35;3.60;;;;;;;2.68;100.00;99860.89;1998933;88;25695;-72
2021/01/05 10:30:48;;;;;;;3.72;2.47;;;;;;;2.73;100.00;99854.24;1990905;89;25779;-72
2021/01/05 10:33:49;;;;;;;3.83;2.63;;;;;;;2.66;100.00;99844.24;1988430;88;33531;-73
2021/01/05 10:36:53;;;;;;;4.10;2.60;;;;;;;2.57;100.00;99843.95;1980176;89;26437;-71
2021/01/05 10:39:54;;;;;;;2.83;2.58;;;;;;;2.54;100.00;99845.30;1987304;88;28278;-72
2021/01/05 10:42:55;;;;;;;2.80;2.00;;;;;;;2.53;100.00;99839.65;1990843;88;35120;-71
2021/01/05 10:45:56;;;;;;;2.87;2.00;;;;;;;2.48;100.00;99836.20;2006342;84;35508;-72
2021/01/05 10:48:57;;;;;;;3.10;2.47;;;;;;;2.50;100.00;99839.69;2059787;86;34189;-71
2021/01/05 10:52:00;;;;;;;5.40;3.62;;;;;;;2.50;100.00;99835.28;2059481;86;26006;-72
2021/01/05 10:55:01;;;;;;;4.92;2.95;;;;;;;2.45;100.00;99829.23;2058804;86;28327;-71
2021/01/05 10:58:03;;;;;;;2.50;2.30;;;;;;;2.39;100.00;99824.06;2059556;86;25697;-73
2021/01/05 11:01:04;;;;;;;3.12;2.83;;;;;;;2.32;100.00;99812.78;2059735;86;26762;-71
2021/01/05 11:04:05;;;;;;;4.17;2.50;;;;;;;2.34;100.00;99812.75;2058583;86;33321;-69
2021/01/05 11:07:12;;;;;;;3.62;2.40;;;;;;;2.38;100.00;99815.31;2058761;86;26095;-72
2021/01/05 11:10:14;;;;;;;3.80;3.40;;;;;;;2.43;100.00;99800.78;2059281;86;29814;-73
2021/01/05 11:13:15;;;;;;;2.90;2.58;;;;;;;2.39;100.00;99791.18;2058825;86;26079;-72
2021/01/05 11:16:16;;;;;;;3.57;3.10;;;;;;;2.28;100.00;99790.03;2059060;86;30952;-72
2021/01/05 11:19:18;;;;;;;3.47;2.85;;;;;;;2.27;100.00;99792.24;2058881;86;25833;-72
2021/01/05 11:22:19;;;;;;;5.78;3.33;;;;;;;2.30;100.00;99790.00;2058450;86;25824;-71
2021/01/05 11:25:20;;;;;;;4.67;3.12;;;;;;;2.34;100.00;99779.41;2058865;86;27556;-71
2021/01/05 11:28:21;;;;;;;3.77;3.47;;;;;;;2.31;100.00;99777.28;2058945;86;35075;-71
2021/01/05 11:31:22;;;;;;;4.93;4.10;;;;;;;2.31;100.00;99770.70;2059960;86;31019;-68
2021/01/05 11:34:24;;;;;;;4.60;3.80;;;;;;;2.32;100.00;99774.65;2058337;86;25831;-69
2021/01/05 11:37:25;;;;;;;8.20;6.08;;;;;;;2.32;100.00;99770.70;2057821;86;25817;-72
2021/01/05 11:40:26;;;;;;;5.47;3.73;;;;;;;2.37;100.00;99762.28;2059089;86;32634;-71
2021/01/05 11:43:27;;;;;;;3.92;3.52;;;;;;;2.46;100.00;99752.50;2058796;86;25927;-71
2021/01/05 11:46:28;;;;;;;3.77;3.47;;;;;;;2.53;100.00;99754.13;2072718;85;30980;-72
2021/01/05 11:49:29;;;;;;;4.10;3.70;;;;;;;2.54;100.00;99751.90;2074687;85;25768;-68
2021/01/05 11:52:31;;;;;;;4.47;3.83;;;;;;;2.52;100.00;99747.98;2074388;85;25797;-72
2021/01/05 11:55:31;;;;;;;4.55;3.83;;;;;;;2.57;100.00;99747.05;2073901;85;28023;-71
2021/01/05 11:58:33;;;;;;;5.80;4.40;;;;;;;2.65;100.00;99734.17;2075118;85;34945;-72
2021/01/05 12:01:36;;;;;;;5.05;3.95;;;;;;;2.68;100.00;99739.36;2074416;85;26760;-72
2021/01/05 12:04:37;;;;;;;4.97;4.42;;;;;;;2.76;100.00;99730.46;2073446;85;25715;-71
2021/01/05 12:07:38;;;;;;;6.90;6.07;;;;;;;2.78;100.00;99728.67;2074076;85;26413;-70
2021/01/05 12:10:39;;;;;;;5.47;4.60;;;;;;;2.81;100.00;99726.00;2074722;84;32641;-71
2021/01/05 12:13:41;;;;;;;5.85;4.67;;;;;;;2.77;100.00;99729.14;2074562;85;25831;-70
2021/01/05 12:16:47;;;;;;;4.72;4.08;;;;;;;2.79;100.00;99726.01;2073405;85;26243;-72
2021/01/05 12:19:49;;;;;;;4.40;3.60;;;;;;;2.79;100.00;99722.06;2051975;85;25880;-72
2021/01/05 12:22:50;;;;;;;4.67;4.10;;;;;;;2.84;100.00;99719.34;2074550;85;25777;-73
2021/01/05 12:25:50;;;;;;;4.67;4.17;;;;;;;2.90;100.00;99724.48;2073841;85;32519;-69
2021/01/05 12:28:52;;;;;;;5.33;4.83;;;;;;;2.92;100.00;99727.97;2073537;85;34922;-68
2021/01/05 12:32:04;;;;;;;4.85;4.33;;;;;;;2.89;100.00;99724.06;2074325;85;25840;-74
2021/01/05 12:35:07;;;;;;;4.55;3.60;;;;;;;2.83;100.00;99718.92;2070249;85;25839;-68
2021/01/05 12:38:10;;;;;;;5.15;4.10;;;;;;;2.84;100.00;99723.30;2074769;85;25878;-68
2021/01/05 12:41:12;;;;;;;5.60;4.05;;;;;;;2.84;100.00;99724.18;2074441;85;46315;-74
2021/01/05 12:44:18;;;;;;;4.73;4.13;;;;;;;2.94;100.00;99719.60;2073681;85;35089;-68
2021/01/05 12:47:20;;;;;;;4.70;4.30;;;;;;;2.99;100.00;99718.20;2061429;85;25935;-72
2021/01/05 12:50:21;;;;;;;8.05;4.42;;;;;;;3.00;100.00;99722.11;2061605;86;25811;-68
2021/01/05 12:53:22;;;;;;;5.93;4.37;;;;;;;3.01;100.00;99719.02;2062323;86;26076;-73
2021/01/05 12:56:24;;;;;;;4.35;3.95;;;;;;;3.00;100.00;99718.16;2063038;86;27571;-69
2021/01/05 12:59:25;;;;;;;6.00;4.08;;;;;;;3.00;100.00;99714.21;2063260;86;25784;-73
2021/01/05 13:02:30;;;;;;;6.00;5.00;;;;;;;3.08;100.00;99715.83;2062906;86;30910;-69
2021/01/05 13:05:35;;;;;;;7.03;5.47;;;;;;;3.12;100.00;99710.90;2063042;86;25740;-72
2021/01/05 13:08:38;;;;;;;6.60;5.72;;;;;;;3.15;100.00;99715.66;2062759;85;26309;-70
2021/01/05 13:11:45;;;;;;;6.42;5.83;;;;;;;3.12;100.00;99709.58;2064619;85;27675;-72
2021/01/05 13:14:46;;;;;;;8.83;5.90;;;;;;;3.09;100.00;99713.61;2061911;86;25808;-71
2021/01/05 13:17:47;;;;;;;7.53;6.70;;;;;;;3.11;100.00;99714.42;2062229;85;31053;-72
2021/01/05 13:20:48;;;;;;;6.75;6.00;;;;;;;3.18;100.00;99715.61;2061753;85;25729;-72
2021/01/05 13:23:49;;;;;;;7.65;6.85;;;;;;;3.22;100.00;99710.25;2061513;85;25437;-72
2021/01/05 13:26:54;;;;;;;8.27;7.33;;;;;;;3.26;100.00;99701.41;2063088;85;32566;-74
2021/01/05 13:29:55;;;;;;;8.63;7.42;;;;;;;3.28;100.00;99705.74;2063417;86;25948;-74
2021/01/05 13:32:56;;;;;;;7.75;6.92;;;;;;;3.26;100.00;99708.84;2062299;86;25839;-74
2021/01/05 13:35:57;;;;;;;6.93;6.23;;;;;;;3.30;100.00;99712.28;2062520;85;33561;-73
2021/01/05 13:38:58;;;;;;;7.60;6.80;;;;;;;3.32;100.00;99713.13;2063250;86;25752;-73
2021/01/05 13:42:08;;;;;;;8.08;7.28;;;;;;;3.33;100.00;99712.23;2065078;84;38740;-71
2021/01/05 13:45:12;;;;;;;9.38;7.72;;;;;;;3.38;100.00;99718.73;2062444;85;25797;-74
2021/01/05 13:48:14;;;;;;;8.95;7.78;;;;;;;3.38;100.00;99714.31;2063006;86;26585;-72
2021/01/05 13:51:15;;;;;;;7.65;6.95;;;;;;;3.34;100.00;99713.52;2063024;85;26121;-72
2021/01/05 13:54:22;;;;;;;8.13;6.58;;;;;;;3.34;100.00;99713.52;2062987;86;26201;-70
2021/01/05 13:57:26;;;;;;;7.80;6.90;;;;;;;3.38;100.00;99716.09;2063233;86;27493;-69
2021/01/05 14:00:28;;;;;;;9.60;7.90;;;;;;;3.42;100.00;99715.97;2062991;86;25742;-73
2021/01/05 14:03:29;;;;;;;10.38;8.28;;;;;;;3.44;100.00;99708.91;2063001;86;26282;-69
2021/01/05 14:06:38;;;;;;;9.95;8.88;;;;;;;3.43;100.00;99710.27;2041723;86;25797;-70
2021/01/05 14:09:43;;;;;;;9.85;8.50;;;;;;;3.40;100.00;99708.57;2034475;87;26401;-75
2021/01/05 14:12:44;;;;;;;9.35;8.45;;;;;;;3.42;100.00;99707.21;2063092;86;28567;-73
2021/01/05 14:15:45;;;;;;;9.67;8.67;;;;;;;3.46;100.00;99711.50;2063096;85;35062;-73
2021/01/05 14:18:46;;;;;;;9.90;8.53;;;;;;;3.51;100.00;99711.83;2063328;85;30979;-73
2021/01/05 14:21:48;;;;;;;9.63;8.25;;;;;;;3.55;100.00;99710.45;2063298;86;25817;-72